sensor_id;sensor_type;location;lat;lon;timestamp;temperature;humidity
3713;DHT22;1872;51.406;6.856;2023-04-15T00:00:32;8.80;95.80
3713;DHT22;1872;51.406;6.856;2023-04-15T00:03:00;8.80;95.90
3713;DHT22;1872;51.406;6.856;2023-04-15T00:05:34;8.80;96.00
3713;DHT22;1872;51.406;6.856;2023-04-15T00:08:00;8.70;96.00
3713;DHT22;1872;51.406;6.856;2023-04-15T00:10:26;8.70;96.00
3713;DHT22;1872;51.406;6.856;2023-04-15T00:12:54;8.70;96.10
3713;DHT22;1872;51.406;6.856;2023-04-15T00:15:20;8.70;96.20
3713;DHT22;1872;51.406;6.856;2023-04-15T00:17:48;8.60;96.20
3713;DHT22;1872;51.406;6.856;2023-04-15T00:20:14;8.60;96.30
3713;DHT22;1872;51.406;6.856;2023-04-15T00:22:40;8.60;96.30
3713;DHT22;1872;51.406;6.856;2023-04-15T00:25:06;8.50;96.40
3713;DHT22;1872;51.406;6.856;2023-04-15T00:27:31;8.50;96.50
3713;DHT22;1872;51.406;6.856;2023-04-15T00:29:57;8.50;96.50
3713;DHT22;1872;51.406;6.856;2023-04-15T00:32:23;8.50;96.60
3713;DHT22;1872;51.406;6.856;2023-04-15T00:34:48;8.50;96.70
3713;DHT22;1872;51.406;6.856;2023-04-15T00:37:17;8.50;96.70
3713;DHT22;1872;51.406;6.856;2023-04-15T00:39:43;8.40;96.80
3713;DHT22;1872;51.406;6.856;2023-04-15T00:42:09;8.40;96.80
3713;DHT22;1872;51.406;6.856;2023-04-15T00:44:35;8.40;96.90
3713;DHT22;1872;51.406;6.856;2023-04-15T00:47:01;8.40;96.90
3713;DHT22;1872;51.406;6.856;2023-04-15T00:49:35;8.30;97.00
3713;DHT22;1872;51.406;6.856;2023-04-15T00:52:01;8.30;97.10
3713;DHT22;1872;51.406;6.856;2023-04-15T00:54:26;8.30;97.10
3713;DHT22;1872;51.406;6.856;2023-04-15T00:56:52;8.30;97.20
3713;DHT22;1872;51.406;6.856;2023-04-15T00:59:19;8.20;97.30
3713;DHT22;1872;51.406;6.856;2023-04-15T01:01:45;8.20;97.30
3713;DHT22;1872;51.406;6.856;2023-04-15T01:04:14;8.20;97.40
3713;DHT22;1872;51.406;6.856;2023-04-15T01:06:40;8.20;97.50
3713;DHT22;1872;51.406;6.856;2023-04-15T01:09:06;8.10;97.60
3713;DHT22;1872;51.406;6.856;2023-04-15T01:11:34;8.10;97.60
3713;DHT22;1872;51.406;6.856;2023-04-15T01:14:00;8.00;97.60
3713;DHT22;1872;51.406;6.856;2023-04-15T01:16:27;8.00;97.70
3713;DHT22;1872;51.406;6.856;2023-04-15T01:18:53;7.90;97.80
3713;DHT22;1872;51.406;6.856;2023-04-15T01:21:19;7.90;97.90
3713;DHT22;1872;51.406;6.856;2023-04-15T01:23:46;7.90;98.00
3713;DHT22;1872;51.406;6.856;2023-04-15T01:26:15;7.90;98.00
3713;DHT22;1872;51.406;6.856;2023-04-15T01:28:41;7.90;98.10
3713;DHT22;1872;51.406;6.856;2023-04-15T01:31:12;7.80;98.20
3713;DHT22;1872;51.406;6.856;2023-04-15T01:33:41;7.80;98.30
3713;DHT22;1872;51.406;6.856;2023-04-15T01:36:08;7.80;98.40
3713;DHT22;1872;51.406;6.856;2023-04-15T01:38:35;7.80;98.40
3713;DHT22;1872;51.406;6.856;2023-04-15T01:41:01;7.80;98.60
3713;DHT22;1872;51.406;6.856;2023-04-15T01:43:28;7.70;98.70
3713;DHT22;1872;51.406;6.856;2023-04-15T01:45:54;7.70;98.80
3713;DHT22;1872;51.406;6.856;2023-04-15T01:48:21;7.70;99.00
3713;DHT22;1872;51.406;6.856;2023-04-15T01:50:47;7.70;99.00
3713;DHT22;1872;51.406;6.856;2023-04-15T01:53:13;7.70;99.10
3713;DHT22;1872;51.406;6.856;2023-04-15T01:55:40;7.70;99.20
3713;DHT22;1872;51.406;6.856;2023-04-15T01:58:08;7.70;99.30
3713;DHT22;1872;51.406;6.856;2023-04-15T02:00:34;7.70;99.40
3713;DHT22;1872;51.406;6.856;2023-04-15T02:03:00;7.60;99.50
3713;DHT22;1872;51.406;6.856;2023-04-15T02:05:27;7.60;99.60
3713;DHT22;1872;51.406;6.856;2023-04-15T02:07:53;7.60;99.70
3713;DHT22;1872;51.406;6.856;2023-04-15T02:10:19;7.60;99.80
3713;DHT22;1872;51.406;6.856;2023-04-15T02:12:44;7.60;99.80
3713;DHT22;1872;51.406;6.856;2023-04-15T02:15:10;7.60;99.90
3713;DHT22;1872;51.406;6.856;2023-04-15T02:17:38;7.60;99.90
3713;DHT22;1872;51.406;6.856;2023-04-15T02:20:12;7.60;99.90
3713;DHT22;1872;51.406;6.856;2023-04-15T02:22:37;7.60;99.90
3713;DHT22;1872;51.406;6.856;2023-04-15T02:25:04;7.50;99.90
3713;DHT22;1872;51.406;6.856;2023-04-15T02:27:29;7.50;99.90
3713;DHT22;1872;51.406;6.856;2023-04-15T02:29:55;7.50;99.90
3713;DHT22;1872;51.406;6.856;2023-04-15T02:32:21;7.50;99.90
3713;DHT22;1872;51.406;6.856;2023-04-15T02:34:48;7.40;99.90
3713;DHT22;1872;51.406;6.856;2023-04-15T02:37:14;7.40;99.90
3713;DHT22;1872;51.406;6.856;2023-04-15T02:39:40;7.40;99.90
3713;DHT22;1872;51.406;6.856;2023-04-15T02:42:06;7.40;99.90
3713;DHT22;1872;51.406;6.856;2023-04-15T02:44:32;7.40;99.90
3713;DHT22;1872;51.406;6.856;2023-04-15T02:46:59;7.40;99.90
3713;DHT22;1872;51.406;6.856;2023-04-15T02:49:25;7.30;99.90
3713;DHT22;1872;51.406;6.856;2023-04-15T02:51:53;7.30;99.90
3713;DHT22;1872;51.406;6.856;2023-04-15T02:54:20;7.20;99.90
3713;DHT22;1872;51.406;6.856;2023-04-15T02:56:47;7.20;99.90
3713;DHT22;1872;51.406;6.856;2023-04-15T02:59:13;7.10;99.90
3713;DHT22;1872;51.406;6.856;2023-04-15T03:01:39;7.10;99.90
3713;DHT22;1872;51.406;6.856;2023-04-15T03:04:04;7.10;99.90
3713;DHT22;1872;51.406;6.856;2023-04-15T03:06:34;7.10;99.90
3713;DHT22;1872;51.406;6.856;2023-04-15T03:09:00;7.10;99.90
3713;DHT22;1872;51.406;6.856;2023-04-15T03:11:27;7.10;99.90
3713;DHT22;1872;51.406;6.856;2023-04-15T03:13:53;7.10;99.90
3713;DHT22;1872;51.406;6.856;2023-04-15T03:16:19;7.10;99.90
3713;DHT22;1872;51.406;6.856;2023-04-15T03:18:45;7.10;99.90
3713;DHT22;1872;51.406;6.856;2023-04-15T03:21:11;7.10;99.90
3713;DHT22;1872;51.406;6.856;2023-04-15T03:23:38;7.00;99.90
3713;DHT22;1872;51.406;6.856;2023-04-15T03:26:04;7.00;99.90
3713;DHT22;1872;51.406;6.856;2023-04-15T03:28:30;7.00;99.90
3713;DHT22;1872;51.406;6.856;2023-04-15T03:30:57;7.00;99.90
3713;DHT22;1872;51.406;6.856;2023-04-15T03:33:23;7.00;99.90
3713;DHT22;1872;51.406;6.856;2023-04-15T03:35:50;7.00;99.90
3713;DHT22;1872;51.406;6.856;2023-04-15T03:38:16;7.00;99.90
3713;DHT22;1872;51.406;6.856;2023-04-15T03:40:42;7.00;99.90
3713;DHT22;1872;51.406;6.856;2023-04-15T03:43:07;7.00;99.90
3713;DHT22;1872;51.406;6.856;2023-04-15T03:45:33;7.00;99.90
3713;DHT22;1872;51.406;6.856;2023-04-15T03:47:59;7.00;99.90
3713;DHT22;1872;51.406;6.856;2023-04-15T03:50:25;7.00;99.90
3713;DHT22;1872;51.406;6.856;2023-04-15T03:52:52;7.00;99.90
3713;DHT22;1872;51.406;6.856;2023-04-15T03:55:18;7.00;99.90
3713;DHT22;1872;51.406;6.856;2023-04-15T03:57:47;6.90;99.90
3713;DHT22;1872;51.406;6.856;2023-04-15T04:00:15;6.90;99.90
3713;DHT22;1872;51.406;6.856;2023-04-15T04:02:40;6.80;99.90
3713;DHT22;1872;51.406;6.856;2023-04-15T04:05:06;6.80;99.90
3713;DHT22;1872;51.406;6.856;2023-04-15T04:07:35;6.80;99.90
3713;DHT22;1872;51.406;6.856;2023-04-15T04:10:01;6.80;99.90
3713;DHT22;1872;51.406;6.856;2023-04-15T04:12:28;6.70;99.90
3713;DHT22;1872;51.406;6.856;2023-04-15T04:14:53;6.70;99.90
3713;DHT22;1872;51.406;6.856;2023-04-15T04:17:19;6.70;99.90
3713;DHT22;1872;51.406;6.856;2023-04-15T04:19:44;6.60;99.90
3713;DHT22;1872;51.406;6.856;2023-04-15T04:22:10;6.60;99.90
3713;DHT22;1872;51.406;6.856;2023-04-15T04:24:39;6.60;99.90
3713;DHT22;1872;51.406;6.856;2023-04-15T04:27:04;6.60;99.90
3713;DHT22;1872;51.406;6.856;2023-04-15T04:29:32;6.60;99.90
3713;DHT22;1872;51.406;6.856;2023-04-15T04:31:58;6.50;99.90
3713;DHT22;1872;51.406;6.856;2023-04-15T04:34:26;6.50;99.90
3713;DHT22;1872;51.406;6.856;2023-04-15T04:36:52;6.50;99.90
3713;DHT22;1872;51.406;6.856;2023-04-15T04:39:17;6.50;99.90
3713;DHT22;1872;51.406;6.856;2023-04-15T04:41:43;6.50;99.90
3713;DHT22;1872;51.406;6.856;2023-04-15T04:44:12;6.40;99.90
3713;DHT22;1872;51.406;6.856;2023-04-15T04:46:37;6.40;99.90
3713;DHT22;1872;51.406;6.856;2023-04-15T04:49:03;6.40;99.90
3713;DHT22;1872;51.406;6.856;2023-04-15T04:51:29;6.40;99.90
3713;DHT22;1872;51.406;6.856;2023-04-15T04:53:55;6.40;99.90
3713;DHT22;1872;51.406;6.856;2023-04-15T04:56:23;6.40;99.90
3713;DHT22;1872;51.406;6.856;2023-04-15T04:58:49;6.40;99.90
3713;DHT22;1872;51.406;6.856;2023-04-15T05:01:15;6.40;99.90
3713;DHT22;1872;51.406;6.856;2023-04-15T05:03:41;6.40;99.90
3713;DHT22;1872;51.406;6.856;2023-04-15T05:06:09;6.40;99.90
3713;DHT22;1872;51.406;6.856;2023-04-15T05:08:35;6.40;99.90
3713;DHT22;1872;51.406;6.856;2023-04-15T05:11:01;6.40;99.90
3713;DHT22;1872;51.406;6.856;2023-04-15T05:13:27;6.40;99.90
3713;DHT22;1872;51.406;6.856;2023-04-15T05:15:55;6.40;99.90
3713;DHT22;1872;51.406;6.856;2023-04-15T05:18:21;6.40;99.90
3713;DHT22;1872;51.406;6.856;2023-04-15T05:20:46;6.40;99.90
3713;DHT22;1872;51.406;6.856;2023-04-15T05:23:14;6.40;99.90
3713;DHT22;1872;51.406;6.856;2023-04-15T05:25:41;6.40;99.90
3713;DHT22;1872;51.406;6.856;2023-04-15T05:28:09;6.40;99.90
3713;DHT22;1872;51.406;6.856;2023-04-15T05:30:35;6.40;99.90
3713;DHT22;1872;51.406;6.856;2023-04-15T05:33:00;6.40;99.90
3713;DHT22;1872;51.406;6.856;2023-04-15T05:35:26;6.40;99.90
3713;DHT22;1872;51.406;6.856;2023-04-15T05:37:52;6.40;99.90
3713;DHT22;1872;51.406;6.856;2023-04-15T05:40:20;6.50;99.90
3713;DHT22;1872;51.406;6.856;2023-04-15T05:42:45;6.50;99.90
3713;DHT22;1872;51.406;6.856;2023-04-15T05:45:13;6.60;99.90
3713;DHT22;1872;51.406;6.856;2023-04-15T05:47:39;6.60;99.90
3713;DHT22;1872;51.406;6.856;2023-04-15T05:50:13;6.70;99.90
3713;DHT22;1872;51.406;6.856;2023-04-15T05:52:38;6.70;99.90
3713;DHT22;1872;51.406;6.856;2023-04-15T05:55:07;6.80;99.90
3713;DHT22;1872;51.406;6.856;2023-04-15T05:57:33;6.90;99.90
3713;DHT22;1872;51.406;6.856;2023-04-15T05:59:58;7.00;99.90
3713;DHT22;1872;51.406;6.856;2023-04-15T06:02:24;7.00;99.90
3713;DHT22;1872;51.406;6.856;2023-04-15T06:04:50;7.10;99.90
3713;DHT22;1872;51.406;6.856;2023-04-15T06:07:19;7.20;99.90
3713;DHT22;1872;51.406;6.856;2023-04-15T06:09:44;7.30;99.90
3713;DHT22;1872;51.406;6.856;2023-04-15T06:12:10;7.40;99.90
3713;DHT22;1872;51.406;6.856;2023-04-15T06:14:37;7.60;99.90
3713;DHT22;1872;51.406;6.856;2023-04-15T06:17:03;7.70;99.90
3713;DHT22;1872;51.406;6.856;2023-04-15T06:19:29;7.80;99.90
3713;DHT22;1872;51.406;6.856;2023-04-15T06:21:57;7.90;99.90
3713;DHT22;1872;51.406;6.856;2023-04-15T06:24:23;8.10;99.90
3713;DHT22;1872;51.406;6.856;2023-04-15T06:26:48;8.20;99.90
3713;DHT22;1872;51.406;6.856;2023-04-15T06:29:15;8.40;99.90
3713;DHT22;1872;51.406;6.856;2023-04-15T06:31:40;8.60;99.90
3713;DHT22;1872;51.406;6.856;2023-04-15T06:34:06;8.90;99.90
3713;DHT22;1872;51.406;6.856;2023-04-15T06:36:32;9.20;99.90
3713;DHT22;1872;51.406;6.856;2023-04-15T06:38:58;9.30;99.90
3713;DHT22;1872;51.406;6.856;2023-04-15T06:41:26;9.50;99.90
3713;DHT22;1872;51.406;6.856;2023-04-15T06:43:51;9.70;99.90
3713;DHT22;1872;51.406;6.856;2023-04-15T06:46:17;10.10;99.90
3713;DHT22;1872;51.406;6.856;2023-04-15T06:48:43;10.40;99.90
3713;DHT22;1872;51.406;6.856;2023-04-15T06:51:11;10.70;99.90
3713;DHT22;1872;51.406;6.856;2023-04-15T06:53:37;10.80;99.90
3713;DHT22;1872;51.406;6.856;2023-04-15T06:56:07;10.80;99.90
3713;DHT22;1872;51.406;6.856;2023-04-15T06:58:33;10.90;99.90
3713;DHT22;1872;51.406;6.856;2023-04-15T07:01:02;11.10;99.90
3713;DHT22;1872;51.406;6.856;2023-04-15T07:03:30;11.30;99.90
3713;DHT22;1872;51.406;6.856;2023-04-15T07:05:56;11.30;99.90
3713;DHT22;1872;51.406;6.856;2023-04-15T07:08:25;11.30;99.90
3713;DHT22;1872;51.406;6.856;2023-04-15T07:10:51;11.30;99.90
3713;DHT22;1872;51.406;6.856;2023-04-15T07:13:16;11.30;99.90
3713;DHT22;1872;51.406;6.856;2023-04-15T07:15:42;11.20;99.90
3713;DHT22;1872;51.406;6.856;2023-04-15T07:18:08;11.20;99.90
3713;DHT22;1872;51.406;6.856;2023-04-15T07:20:36;11.30;99.90
3713;DHT22;1872;51.406;6.856;2023-04-15T07:23:02;11.30;99.90
3713;DHT22;1872;51.406;6.856;2023-04-15T07:25:28;11.30;99.90
3713;DHT22;1872;51.406;6.856;2023-04-15T07:27:53;11.40;99.90
3713;DHT22;1872;51.406;6.856;2023-04-15T07:30:19;11.60;99.90
3713;DHT22;1872;51.406;6.856;2023-04-15T07:32:45;11.90;99.90
3713;DHT22;1872;51.406;6.856;2023-04-15T07:35:11;12.20;99.90
3713;DHT22;1872;51.406;6.856;2023-04-15T07:37:36;12.30;99.90
3713;DHT22;1872;51.406;6.856;2023-04-15T07:40:02;12.20;99.90
3713;DHT22;1872;51.406;6.856;2023-04-15T07:42:29;11.90;99.90
3713;DHT22;1872;51.406;6.856;2023-04-15T07:44:55;11.90;99.90
3713;DHT22;1872;51.406;6.856;2023-04-15T07:47:21;11.80;99.90
3713;DHT22;1872;51.406;6.856;2023-04-15T07:49:47;11.60;99.90
3713;DHT22;1872;51.406;6.856;2023-04-15T07:52:12;11.50;99.90
3713;DHT22;1872;51.406;6.856;2023-04-15T07:54:38;11.30;99.90
3713;DHT22;1872;51.406;6.856;2023-04-15T07:57:04;11.20;99.90
3713;DHT22;1872;51.406;6.856;2023-04-15T07:59:34;11.20;99.90
3713;DHT22;1872;51.406;6.856;2023-04-15T08:02:00;11.30;99.90
3713;DHT22;1872;51.406;6.856;2023-04-15T08:04:26;11.40;99.90
3713;DHT22;1872;51.406;6.856;2023-04-15T08:06:51;11.40;99.90
3713;DHT22;1872;51.406;6.856;2023-04-15T08:09:17;11.50;99.90
3713;DHT22;1872;51.406;6.856;2023-04-15T08:11:43;11.50;99.90
3713;DHT22;1872;51.406;6.856;2023-04-15T08:14:09;11.60;99.90
3713;DHT22;1872;51.406;6.856;2023-04-15T08:16:35;11.70;99.90
3713;DHT22;1872;51.406;6.856;2023-04-15T08:19:01;11.70;99.90
3713;DHT22;1872;51.406;6.856;2023-04-15T08:21:27;11.90;99.90
3713;DHT22;1872;51.406;6.856;2023-04-15T08:23:55;12.20;99.90
3713;DHT22;1872;51.406;6.856;2023-04-15T08:26:25;12.30;99.90
3713;DHT22;1872;51.406;6.856;2023-04-15T08:28:51;12.40;99.90
3713;DHT22;1872;51.406;6.856;2023-04-15T08:31:18;12.40;99.90
3713;DHT22;1872;51.406;6.856;2023-04-15T08:33:44;12.60;99.90
3713;DHT22;1872;51.406;6.856;2023-04-15T08:36:10;12.70;99.90
3713;DHT22;1872;51.406;6.856;2023-04-15T08:38:36;12.70;99.90
3713;DHT22;1872;51.406;6.856;2023-04-15T08:41:20;12.60;99.90
3713;DHT22;1872;51.406;6.856;2023-04-15T08:43:57;12.50;99.90
3713;DHT22;1872;51.406;6.856;2023-04-15T08:46:25;12.50;99.90
3713;DHT22;1872;51.406;6.856;2023-04-15T08:48:56;12.20;99.90
3713;DHT22;1872;51.406;6.856;2023-04-15T08:51:24;12.20;99.90
3713;DHT22;1872;51.406;6.856;2023-04-15T08:53:52;12.10;99.90
3713;DHT22;1872;51.406;6.856;2023-04-15T08:56:23;12.20;99.90
3713;DHT22;1872;51.406;6.856;2023-04-15T08:58:49;12.30;99.90
3713;DHT22;1872;51.406;6.856;2023-04-15T09:01:16;12.40;99.90
3713;DHT22;1872;51.406;6.856;2023-04-15T09:03:42;12.50;99.90
3713;DHT22;1872;51.406;6.856;2023-04-15T09:06:10;12.70;99.90
3713;DHT22;1872;51.406;6.856;2023-04-15T09:08:36;12.70;99.90
3713;DHT22;1872;51.406;6.856;2023-04-15T09:11:02;12.70;99.90
3713;DHT22;1872;51.406;6.856;2023-04-15T09:13:31;12.60;99.90
3713;DHT22;1872;51.406;6.856;2023-04-15T09:15:56;12.40;99.90
3713;DHT22;1872;51.406;6.856;2023-04-15T09:18:33;12.30;99.90
3713;DHT22;1872;51.406;6.856;2023-04-15T09:21:09;12.40;99.90
3713;DHT22;1872;51.406;6.856;2023-04-15T09:23:56;12.40;99.90
3713;DHT22;1872;51.406;6.856;2023-04-15T09:26:37;12.60;99.90
3713;DHT22;1872;51.406;6.856;2023-04-15T09:29:05;12.70;99.90
3713;DHT22;1872;51.406;6.856;2023-04-15T09:31:32;12.70;99.90
3713;DHT22;1872;51.406;6.856;2023-04-15T09:33:58;12.80;99.90
3713;DHT22;1872;51.406;6.856;2023-04-15T09:36:26;12.80;99.90
3713;DHT22;1872;51.406;6.856;2023-04-15T09:38:58;12.90;99.90
3713;DHT22;1872;51.406;6.856;2023-04-15T09:41:25;12.90;99.90
3713;DHT22;1872;51.406;6.856;2023-04-15T09:43:51;12.90;99.90
3713;DHT22;1872;51.406;6.856;2023-04-15T09:46:16;12.80;99.90
3713;DHT22;1872;51.406;6.856;2023-04-15T09:48:42;12.80;99.90
3713;DHT22;1872;51.406;6.856;2023-04-15T09:51:08;12.80;99.90
3713;DHT22;1872;51.406;6.856;2023-04-15T09:53:35;12.80;99.90
3713;DHT22;1872;51.406;6.856;2023-04-15T09:56:03;13.00;99.90
3713;DHT22;1872;51.406;6.856;2023-04-15T09:58:33;13.10;99.90
3713;DHT22;1872;51.406;6.856;2023-04-15T10:01:01;13.10;99.90
3713;DHT22;1872;51.406;6.856;2023-04-15T10:03:32;13.10;99.90
3713;DHT22;1872;51.406;6.856;2023-04-15T10:06:00;12.90;99.90
3713;DHT22;1872;51.406;6.856;2023-04-15T10:08:28;12.80;99.90
3713;DHT22;1872;51.406;6.856;2023-04-15T10:10:54;12.80;99.90
3713;DHT22;1872;51.406;6.856;2023-04-15T10:13:23;12.70;99.90
3713;DHT22;1872;51.406;6.856;2023-04-15T10:16:05;12.60;99.90
3713;DHT22;1872;51.406;6.856;2023-04-15T10:18:35;12.60;99.90
3713;DHT22;1872;51.406;6.856;2023-04-15T10:21:03;12.50;99.90
3713;DHT22;1872;51.406;6.856;2023-04-15T10:23:30;12.50;99.90
3713;DHT22;1872;51.406;6.856;2023-04-15T10:25:57;12.40;99.90
3713;DHT22;1872;51.406;6.856;2023-04-15T10:28:24;12.40;99.90
3713;DHT22;1872;51.406;6.856;2023-04-15T10:30:51;12.50;99.90
3713;DHT22;1872;51.406;6.856;2023-04-15T10:33:22;12.60;99.90
3713;DHT22;1872;51.406;6.856;2023-04-15T10:35:52;12.60;99.90
3713;DHT22;1872;51.406;6.856;2023-04-15T10:38:32;12.80;99.90
3713;DHT22;1872;51.406;6.856;2023-04-15T10:41:12;12.80;99.90
3713;DHT22;1872;51.406;6.856;2023-04-15T10:43:39;12.80;99.90
3713;DHT22;1872;51.406;6.856;2023-04-15T10:46:05;12.80;99.90
3713;DHT22;1872;51.406;6.856;2023-04-15T10:48:31;12.80;99.90
3713;DHT22;1872;51.406;6.856;2023-04-15T10:50:59;12.60;99.90
3713;DHT22;1872;51.406;6.856;2023-04-15T10:53:28;12.60;99.90
3713;DHT22;1872;51.406;6.856;2023-04-15T10:55:54;12.50;99.90
3713;DHT22;1872;51.406;6.856;2023-04-15T10:58:23;12.50;99.90
3713;DHT22;1872;51.406;6.856;2023-04-15T11:00:53;12.50;99.90
3713;DHT22;1872;51.406;6.856;2023-04-15T11:03:38;12.50;99.90
3713;DHT22;1872;51.406;6.856;2023-04-15T11:06:05;12.40;99.90
3713;DHT22;1872;51.406;6.856;2023-04-15T11:11:19;12.10;99.90
3713;DHT22;1872;51.406;6.856;2023-04-15T11:13:49;12.00;99.90
3713;DHT22;1872;51.406;6.856;2023-04-15T11:16:16;12.00;99.90
3713;DHT22;1872;51.406;6.856;2023-04-15T11:18:53;11.90;99.90
3713;DHT22;1872;51.406;6.856;2023-04-15T11:21:23;11.80;99.90
3713;DHT22;1872;51.406;6.856;2023-04-15T11:23:52;11.80;99.90
3713;DHT22;1872;51.406;6.856;2023-04-15T11:26:27;11.90;99.90
3713;DHT22;1872;51.406;6.856;2023-04-15T11:28:53;12.00;99.90
3713;DHT22;1872;51.406;6.856;2023-04-15T11:31:19;12.00;99.90
3713;DHT22;1872;51.406;6.856;2023-04-15T11:33:58;12.00;99.90
3713;DHT22;1872;51.406;6.856;2023-04-15T11:36:27;11.90;99.90
3713;DHT22;1872;51.406;6.856;2023-04-15T11:38:53;11.90;99.90
3713;DHT22;1872;51.406;6.856;2023-04-15T11:41:22;11.90;99.90
3713;DHT22;1872;51.406;6.856;2023-04-15T11:43:49;12.00;99.90
3713;DHT22;1872;51.406;6.856;2023-04-15T11:46:15;12.10;99.90
3713;DHT22;1872;51.406;6.856;2023-04-15T11:48:45;12.20;99.90
3713;DHT22;1872;51.406;6.856;2023-04-15T11:51:11;12.20;99.90
3713;DHT22;1872;51.406;6.856;2023-04-15T11:53:49;12.10;99.90
3713;DHT22;1872;51.406;6.856;2023-04-15T11:56:21;12.10;99.90
3713;DHT22;1872;51.406;6.856;2023-04-15T11:58:50;12.00;99.90
3713;DHT22;1872;51.406;6.856;2023-04-15T12:01:16;12.00;99.90
3713;DHT22;1872;51.406;6.856;2023-04-15T12:03:46;12.10;99.90
3713;DHT22;1872;51.406;6.856;2023-04-15T12:09:06;12.20;99.90
3713;DHT22;1872;51.406;6.856;2023-04-15T12:16:45;11.90;99.90
3713;DHT22;1872;51.406;6.856;2023-04-15T12:19:12;11.90;99.90
3713;DHT22;1872;51.406;6.856;2023-04-15T12:21:42;11.80;99.90
3713;DHT22;1872;51.406;6.856;2023-04-15T12:24:11;11.80;99.90
3713;DHT22;1872;51.406;6.856;2023-04-15T12:26:43;11.70;99.90
3713;DHT22;1872;51.406;6.856;2023-04-15T12:29:11;11.70;99.90
3713;DHT22;1872;51.406;6.856;2023-04-15T12:31:52;11.60;99.90
3713;DHT22;1872;51.406;6.856;2023-04-15T12:34:28;11.60;99.90
3713;DHT22;1872;51.406;6.856;2023-04-15T12:36:55;11.60;99.90
3713;DHT22;1872;51.406;6.856;2023-04-15T12:39:25;11.50;99.90
3713;DHT22;1872;51.406;6.856;2023-04-15T12:41:52;11.50;99.90
3713;DHT22;1872;51.406;6.856;2023-04-15T12:44:18;11.60;99.90
3713;DHT22;1872;51.406;6.856;2023-04-15T12:46:44;11.60;99.90
3713;DHT22;1872;51.406;6.856;2023-04-15T12:49:11;11.70;99.90
3713;DHT22;1872;51.406;6.856;2023-04-15T12:51:39;11.70;99.90
3713;DHT22;1872;51.406;6.856;2023-04-15T12:54:04;11.70;99.90
3713;DHT22;1872;51.406;6.856;2023-04-15T12:56:30;11.60;99.90
3713;DHT22;1872;51.406;6.856;2023-04-15T12:58:56;11.70;99.90
3713;DHT22;1872;51.406;6.856;2023-04-15T13:01:22;11.60;99.90
3713;DHT22;1872;51.406;6.856;2023-04-15T13:03:47;11.70;99.90
3713;DHT22;1872;51.406;6.856;2023-04-15T13:06:17;11.70;99.90
3713;DHT22;1872;51.406;6.856;2023-04-15T13:08:43;11.70;99.90
3713;DHT22;1872;51.406;6.856;2023-04-15T13:11:08;11.70;99.90
3713;DHT22;1872;51.406;6.856;2023-04-15T13:13:35;11.80;99.90
3713;DHT22;1872;51.406;6.856;2023-04-15T13:16:00;11.80;99.90
3713;DHT22;1872;51.406;6.856;2023-04-15T13:18:28;11.90;99.90
3713;DHT22;1872;51.406;6.856;2023-04-15T13:20:55;11.80;99.90
3713;DHT22;1872;51.406;6.856;2023-04-15T13:23:21;11.70;99.90
3713;DHT22;1872;51.406;6.856;2023-04-15T13:25:47;11.70;99.90
3713;DHT22;1872;51.406;6.856;2023-04-15T13:28:13;11.70;99.90
3713;DHT22;1872;51.406;6.856;2023-04-15T13:30:38;11.60;99.90
3713;DHT22;1872;51.406;6.856;2023-04-15T13:33:12;11.60;99.90
3713;DHT22;1872;51.406;6.856;2023-04-15T13:35:39;11.60;99.90
3713;DHT22;1872;51.406;6.856;2023-04-15T13:38:05;11.60;99.90
3713;DHT22;1872;51.406;6.856;2023-04-15T13:40:30;11.60;99.90
3713;DHT22;1872;51.406;6.856;2023-04-15T13:42:56;11.60;99.90
3713;DHT22;1872;51.406;6.856;2023-04-15T13:45:23;11.60;99.90
3713;DHT22;1872;51.406;6.856;2023-04-15T13:47:48;11.60;99.90
3713;DHT22;1872;51.406;6.856;2023-04-15T13:50:15;11.70;99.90
3713;DHT22;1872;51.406;6.856;2023-04-15T13:52:41;11.70;99.90
3713;DHT22;1872;51.406;6.856;2023-04-15T13:55:07;11.70;99.90
3713;DHT22;1872;51.406;6.856;2023-04-15T13:57:35;11.60;99.90
3713;DHT22;1872;51.406;6.856;2023-04-15T14:00:02;11.60;99.90
3713;DHT22;1872;51.406;6.856;2023-04-15T14:02:29;11.50;99.90
3713;DHT22;1872;51.406;6.856;2023-04-15T14:04:55;11.50;99.90
3713;DHT22;1872;51.406;6.856;2023-04-15T14:07:20;11.50;99.90
3713;DHT22;1872;51.406;6.856;2023-04-15T14:09:46;11.50;99.90
3713;DHT22;1872;51.406;6.856;2023-04-15T14:12:12;11.40;99.90
3713;DHT22;1872;51.406;6.856;2023-04-15T14:14:41;11.40;99.90
3713;DHT22;1872;51.406;6.856;2023-04-15T14:17:07;11.40;99.90
3713;DHT22;1872;51.406;6.856;2023-04-15T14:19:34;11.30;99.90
3713;DHT22;1872;51.406;6.856;2023-04-15T14:22:00;11.30;99.90
3713;DHT22;1872;51.406;6.856;2023-04-15T14:24:26;11.20;99.90
3713;DHT22;1872;51.406;6.856;2023-04-15T14:26:52;11.20;99.90
3713;DHT22;1872;51.406;6.856;2023-04-15T14:29:17;11.20;99.90
3713;DHT22;1872;51.406;6.856;2023-04-15T14:31:44;11.20;99.90
3713;DHT22;1872;51.406;6.856;2023-04-15T14:34:10;11.20;99.90
3713;DHT22;1872;51.406;6.856;2023-04-15T14:36:36;11.20;99.90
3713;DHT22;1872;51.406;6.856;2023-04-15T14:39:02;11.10;99.90
3713;DHT22;1872;51.406;6.856;2023-04-15T14:41:30;11.10;99.90
3713;DHT22;1872;51.406;6.856;2023-04-15T14:43:56;11.10;99.90
3713;DHT22;1872;51.406;6.856;2023-04-15T14:46:22;11.20;99.90
3713;DHT22;1872;51.406;6.856;2023-04-15T14:48:48;11.30;99.90
3713;DHT22;1872;51.406;6.856;2023-04-15T14:51:14;11.30;99.90
3713;DHT22;1872;51.406;6.856;2023-04-15T14:53:40;11.30;99.90
3713;DHT22;1872;51.406;6.856;2023-04-15T14:56:08;11.30;99.90
3713;DHT22;1872;51.406;6.856;2023-04-15T14:58:34;11.30;99.90
3713;DHT22;1872;51.406;6.856;2023-04-15T15:01:00;11.20;99.90
3713;DHT22;1872;51.406;6.856;2023-04-15T15:03:27;11.10;99.90
3713;DHT22;1872;51.406;6.856;2023-04-15T15:05:53;11.10;99.90
3713;DHT22;1872;51.406;6.856;2023-04-15T15:08:19;11.00;99.90
3713;DHT22;1872;51.406;6.856;2023-04-15T15:10:45;10.90;99.90
3713;DHT22;1872;51.406;6.856;2023-04-15T15:13:11;10.80;99.90
3713;DHT22;1872;51.406;6.856;2023-04-15T15:15:37;10.80;99.90
3713;DHT22;1872;51.406;6.856;2023-04-15T15:18:03;10.70;99.90
3713;DHT22;1872;51.406;6.856;2023-04-15T15:20:32;10.60;99.90
3713;DHT22;1872;51.406;6.856;2023-04-15T15:22:59;10.60;99.90
3713;DHT22;1872;51.406;6.856;2023-04-15T15:25:25;10.60;99.90
3713;DHT22;1872;51.406;6.856;2023-04-15T15:27:51;10.60;99.90
3713;DHT22;1872;51.406;6.856;2023-04-15T15:30:17;10.60;99.90
3713;DHT22;1872;51.406;6.856;2023-04-15T15:32:43;10.60;99.90
3713;DHT22;1872;51.406;6.856;2023-04-15T15:35:09;10.60;99.90
3713;DHT22;1872;51.406;6.856;2023-04-15T15:37:35;10.50;99.90
3713;DHT22;1872;51.406;6.856;2023-04-15T15:40:05;10.50;99.90
3713;DHT22;1872;51.406;6.856;2023-04-15T15:42:31;10.40;99.90
3713;DHT22;1872;51.406;6.856;2023-04-15T15:44:57;10.50;99.90
3713;DHT22;1872;51.406;6.856;2023-04-15T15:47:25;10.50;99.90
3713;DHT22;1872;51.406;6.856;2023-04-15T15:49:52;10.50;99.90
3713;DHT22;1872;51.406;6.856;2023-04-15T15:52:18;10.50;99.90
3713;DHT22;1872;51.406;6.856;2023-04-15T15:54:44;10.50;99.90
3713;DHT22;1872;51.406;6.856;2023-04-15T15:57:10;10.50;99.90
3713;DHT22;1872;51.406;6.856;2023-04-15T15:59:36;10.50;99.90
3713;DHT22;1872;51.406;6.856;2023-04-15T16:02:10;10.40;99.90
3713;DHT22;1872;51.406;6.856;2023-04-15T16:04:36;10.40;99.90
3713;DHT22;1872;51.406;6.856;2023-04-15T16:07:02;10.30;99.90
3713;DHT22;1872;51.406;6.856;2023-04-15T16:09:29;10.30;99.90
3713;DHT22;1872;51.406;6.856;2023-04-15T16:11:56;10.20;99.90
3713;DHT22;1872;51.406;6.856;2023-04-15T16:14:23;10.20;99.90
3713;DHT22;1872;51.406;6.856;2023-04-15T16:16:52;10.10;99.90
3713;DHT22;1872;51.406;6.856;2023-04-15T16:19:19;10.10;99.90